sensor_id;sensor_type;location;lat;lon;timestamp;P1;durP1;ratioP1;P2;durP2;ratioP2
72557;SDS011;60583;50.094;8.748;2022-10-31T00:02:03;16.58;;;7.32;;
72557;SDS011;60583;50.094;8.748;2022-10-31T00:04:29;14.45;;;7.47;;
72557;SDS011;60583;50.094;8.748;2022-10-31T00:06:54;11.75;;;6.97;;
72557;SDS011;60583;50.094;8.748;2022-10-31T00:09:19;12.85;;;7.13;;
72557;SDS011;60583;50.094;8.748;2022-10-31T00:11:45;12.27;;;7.10;;
72557;SDS011;60583;50.094;8.748;2022-10-31T00:14:10;12.63;;;7.10;;
72557;SDS011;60583;50.094;8.748;2022-10-31T00:16:35;13.50;;;7.68;;
72557;SDS011;60583;50.094;8.748;2022-10-31T00:19:02;14.88;;;8.10;;
72557;SDS011;60583;50.094;8.748;2022-10-31T00:21:29;12.20;;;7.60;;
72557;SDS011;60583;50.094;8.748;2022-10-31T00:23:56;13.55;;;7.88;;
72557;SDS011;60583;50.094;8.748;2022-10-31T00:26:22;12.05;;;7.75;;
72557;SDS011;60583;50.094;8.748;2022-10-31T00:28:47;14.57;;;7.45;;
72557;SDS011;60583;50.094;8.748;2022-10-31T00:31:13;12.88;;;7.50;;
72557;SDS011;60583;50.094;8.748;2022-10-31T00:33:39;11.80;;;7.30;;
72557;SDS011;60583;50.094;8.748;2022-10-31T00:36:06;15.45;;;7.35;;
72557;SDS011;60583;50.094;8.748;2022-10-31T00:38:33;13.73;;;7.88;;
72557;SDS011;60583;50.094;8.748;2022-10-31T00:40:58;12.90;;;6.90;;
72557;SDS011;60583;50.094;8.748;2022-10-31T00:43:23;12.48;;;7.45;;
72557;SDS011;60583;50.094;8.748;2022-10-31T00:45:49;13.23;;;7.88;;
72557;SDS011;60583;50.094;8.748;2022-10-31T00:48:14;12.93;;;7.45;;
72557;SDS011;60583;50.094;8.748;2022-10-31T00:50:40;13.02;;;7.07;;
72557;SDS011;60583;50.094;8.748;2022-10-31T00:53:06;13.10;;;7.07;;
72557;SDS011;60583;50.094;8.748;2022-10-31T00:55:31;12.35;;;6.95;;
72557;SDS011;60583;50.094;8.748;2022-10-31T00:57:57;12.65;;;7.22;;
72557;SDS011;60583;50.094;8.748;2022-10-31T01:00:22;12.23;;;7.43;;
72557;SDS011;60583;50.094;8.748;2022-10-31T01:02:47;13.57;;;7.35;;
72557;SDS011;60583;50.094;8.748;2022-10-31T01:05:13;16.13;;;7.22;;
72557;SDS011;60583;50.094;8.748;2022-10-31T01:07:40;13.75;;;7.05;;
72557;SDS011;60583;50.094;8.748;2022-10-31T01:10:06;13.20;;;7.47;;
72557;SDS011;60583;50.094;8.748;2022-10-31T01:12:39;14.18;;;7.53;;
72557;SDS011;60583;50.094;8.748;2022-10-31T01:15:05;12.13;;;6.82;;
72557;SDS011;60583;50.094;8.748;2022-10-31T01:17:32;12.82;;;7.15;;
72557;SDS011;60583;50.094;8.748;2022-10-31T01:19:57;14.48;;;7.55;;
72557;SDS011;60583;50.094;8.748;2022-10-31T01:22:22;15.65;;;7.60;;
72557;SDS011;60583;50.094;8.748;2022-10-31T01:24:48;15.43;;;6.85;;
72557;SDS011;60583;50.094;8.748;2022-10-31T01:27:13;12.82;;;7.32;;
72557;SDS011;60583;50.094;8.748;2022-10-31T01:29:38;14.38;;;7.07;;
72557;SDS011;60583;50.094;8.748;2022-10-31T01:32:04;18.67;;;7.70;;
72557;SDS011;60583;50.094;8.748;2022-10-31T01:34:29;11.07;;;6.75;;
72557;SDS011;60583;50.094;8.748;2022-10-31T01:36:54;11.50;;;7.25;;
72557;SDS011;60583;50.094;8.748;2022-10-31T01:39:20;14.65;;;7.43;;
72557;SDS011;60583;50.094;8.748;2022-10-31T01:41:46;12.95;;;7.63;;
72557;SDS011;60583;50.094;8.748;2022-10-31T01:46:40;11.47;;;7.10;;
72557;SDS011;60583;50.094;8.748;2022-10-31T01:49:18;12.52;;;7.78;;
72557;SDS011;60583;50.094;8.748;2022-10-31T01:52:04;13.10;;;7.90;;
72557;SDS011;60583;50.094;8.748;2022-10-31T01:54:37;12.90;;;6.70;;
72557;SDS011;60583;50.094;8.748;2022-10-31T01:57:06;11.82;;;7.03;;
72557;SDS011;60583;50.094;8.748;2022-10-31T01:59:36;10.98;;;6.75;;
72557;SDS011;60583;50.094;8.748;2022-10-31T02:02:07;13.57;;;6.90;;
72557;SDS011;60583;50.094;8.748;2022-10-31T02:04:33;14.80;;;7.90;;
72557;SDS011;60583;50.094;8.748;2022-10-31T02:07:03;10.40;;;6.70;;
72557;SDS011;60583;50.094;8.748;2022-10-31T02:09:32;11.77;;;6.95;;
72557;SDS011;60583;50.094;8.748;2022-10-31T02:11:59;13.45;;;7.95;;
72557;SDS011;60583;50.094;8.748;2022-10-31T02:14:26;12.63;;;7.90;;
72557;SDS011;60583;50.094;8.748;2022-10-31T02:16:54;13.55;;;7.43;;
72557;SDS011;60583;50.094;8.748;2022-10-31T02:25:35;14.07;;;7.00;;
72557;SDS011;60583;50.094;8.748;2022-10-31T02:28:25;13.43;;;6.63;;
72557;SDS011;60583;50.094;8.748;2022-10-31T02:33:51;11.70;;;6.93;;
72557;SDS011;60583;50.094;8.748;2022-10-31T02:36:23;11.48;;;6.35;;
72557;SDS011;60583;50.094;8.748;2022-10-31T02:39:01;11.90;;;7.15;;
72557;SDS011;60583;50.094;8.748;2022-10-31T02:41:59;10.32;;;6.85;;
72557;SDS011;60583;50.094;8.748;2022-10-31T02:46:57;12.65;;;7.15;;
72557;SDS011;60583;50.094;8.748;2022-10-31T02:52:22;13.05;;;7.05;;
72557;SDS011;60583;50.094;8.748;2022-10-31T02:54:50;13.57;;;6.80;;
72557;SDS011;60583;50.094;8.748;2022-10-31T02:57:16;12.85;;;6.93;;
72557;SDS011;60583;50.094;8.748;2022-10-31T02:59:49;13.10;;;6.45;;
72557;SDS011;60583;50.094;8.748;2022-10-31T03:02:24;13.93;;;6.60;;
72557;SDS011;60583;50.094;8.748;2022-10-31T03:04:54;13.02;;;6.63;;
72557;SDS011;60583;50.094;8.748;2022-10-31T03:10:35;12.20;;;6.90;;
72557;SDS011;60583;50.094;8.748;2022-10-31T03:15:28;11.50;;;6.78;;
72557;SDS011;60583;50.094;8.748;2022-10-31T03:20:30;13.75;;;7.32;;
72557;SDS011;60583;50.094;8.748;2022-10-31T03:23:01;18.63;;;7.35;;
72557;SDS011;60583;50.094;8.748;2022-10-31T03:25:29;10.85;;;6.15;;
72557;SDS011;60583;50.094;8.748;2022-10-31T03:27:56;13.60;;;7.25;;
72557;SDS011;60583;50.094;8.748;2022-10-31T03:30:26;11.85;;;6.95;;
72557;SDS011;60583;50.094;8.748;2022-10-31T03:32:52;12.55;;;6.90;;
72557;SDS011;60583;50.094;8.748;2022-10-31T03:35:21;13.85;;;7.03;;
72557;SDS011;60583;50.094;8.748;2022-10-31T03:37:51;11.80;;;6.53;;
72557;SDS011;60583;50.094;8.748;2022-10-31T03:40:19;12.38;;;7.15;;
72557;SDS011;60583;50.094;8.748;2022-10-31T03:42:50;11.77;;;7.30;;
72557;SDS011;60583;50.094;8.748;2022-10-31T03:45:29;12.10;;;6.80;;
72557;SDS011;60583;50.094;8.748;2022-10-31T03:47:56;10.40;;;6.60;;
72557;SDS011;60583;50.094;8.748;2022-10-31T03:50:24;11.93;;;7.15;;
72557;SDS011;60583;50.094;8.748;2022-10-31T03:52:58;13.25;;;8.55;;
72557;SDS011;60583;50.094;8.748;2022-10-31T03:55:31;13.85;;;8.13;;
72557;SDS011;60583;50.094;8.748;2022-10-31T03:58:08;13.55;;;8.75;;
72557;SDS011;60583;50.094;8.748;2022-10-31T04:00:38;13.35;;;7.88;;
72557;SDS011;60583;50.094;8.748;2022-10-31T04:05:35;11.93;;;6.78;;
72557;SDS011;60583;50.094;8.748;2022-10-31T04:08:03;10.85;;;6.82;;
72557;SDS011;60583;50.094;8.748;2022-10-31T04:10:31;12.25;;;7.68;;
72557;SDS011;60583;50.094;8.748;2022-10-31T04:13:01;12.05;;;7.47;;
72557;SDS011;60583;50.094;8.748;2022-10-31T04:15:30;13.30;;;7.43;;
72557;SDS011;60583;50.094;8.748;2022-10-31T04:17:58;13.00;;;7.22;;
72557;SDS011;60583;50.094;8.748;2022-10-31T04:20:34;11.30;;;7.40;;
72557;SDS011;60583;50.094;8.748;2022-10-31T04:23:02;13.45;;;8.32;;
72557;SDS011;60583;50.094;8.748;2022-10-31T04:25:30;12.23;;;7.30;;
72557;SDS011;60583;50.094;8.748;2022-10-31T04:27:55;12.25;;;7.57;;
72557;SDS011;60583;50.094;8.748;2022-10-31T04:30:21;11.27;;;7.45;;
72557;SDS011;60583;50.094;8.748;2022-10-31T04:32:46;13.05;;;8.00;;
72557;SDS011;60583;50.094;8.748;2022-10-31T04:35:12;12.00;;;7.15;;
72557;SDS011;60583;50.094;8.748;2022-10-31T04:37:37;14.85;;;7.95;;
72557;SDS011;60583;50.094;8.748;2022-10-31T04:40:03;12.05;;;7.10;;
72557;SDS011;60583;50.094;8.748;2022-10-31T04:42:29;12.98;;;7.20;;
72557;SDS011;60583;50.094;8.748;2022-10-31T04:44:55;12.48;;;7.38;;
72557;SDS011;60583;50.094;8.748;2022-10-31T04:47:20;11.05;;;7.15;;
72557;SDS011;60583;50.094;8.748;2022-10-31T04:49:45;12.85;;;7.13;;
72557;SDS011;60583;50.094;8.748;2022-10-31T04:52:11;14.23;;;7.75;;
72557;SDS011;60583;50.094;8.748;2022-10-31T04:54:36;15.63;;;7.72;;
72557;SDS011;60583;50.094;8.748;2022-10-31T04:57:01;13.77;;;7.50;;
72557;SDS011;60583;50.094;8.748;2022-10-31T04:59:27;11.55;;;7.00;;
72557;SDS011;60583;50.094;8.748;2022-10-31T05:01:52;12.75;;;7.30;;
72557;SDS011;60583;50.094;8.748;2022-10-31T05:04:18;12.23;;;7.13;;
72557;SDS011;60583;50.094;8.748;2022-10-31T05:06:43;14.43;;;7.32;;
72557;SDS011;60583;50.094;8.748;2022-10-31T05:09:08;15.85;;;7.32;;
72557;SDS011;60583;50.094;8.748;2022-10-31T05:11:33;16.35;;;7.35;;
72557;SDS011;60583;50.094;8.748;2022-10-31T05:13:59;13.85;;;7.35;;
72557;SDS011;60583;50.094;8.748;2022-10-31T05:16:24;11.77;;;7.18;;
72557;SDS011;60583;50.094;8.748;2022-10-31T05:18:49;11.40;;;7.22;;
72557;SDS011;60583;50.094;8.748;2022-10-31T05:21:15;11.68;;;6.82;;
72557;SDS011;60583;50.094;8.748;2022-10-31T05:23:40;12.52;;;6.90;;
72557;SDS011;60583;50.094;8.748;2022-10-31T05:26:05;10.77;;;6.53;;
72557;SDS011;60583;50.094;8.748;2022-10-31T05:28:31;11.98;;;6.85;;
72557;SDS011;60583;50.094;8.748;2022-10-31T05:30:56;12.68;;;7.03;;
72557;SDS011;60583;50.094;8.748;2022-10-31T05:33:21;14.68;;;7.07;;
72557;SDS011;60583;50.094;8.748;2022-10-31T05:35:47;14.95;;;7.32;;
72557;SDS011;60583;50.094;8.748;2022-10-31T05:38:12;12.65;;;8.27;;
72557;SDS011;60583;50.094;8.748;2022-10-31T05:40:38;11.65;;;7.18;;
72557;SDS011;60583;50.094;8.748;2022-10-31T05:43:03;12.23;;;7.65;;
72557;SDS011;60583;50.094;8.748;2022-10-31T05:45:28;13.32;;;8.43;;
72557;SDS011;60583;50.094;8.748;2022-10-31T05:47:55;13.63;;;8.20;;
72557;SDS011;60583;50.094;8.748;2022-10-31T05:50:22;12.82;;;8.00;;
72557;SDS011;60583;50.094;8.748;2022-10-31T05:52:53;14.10;;;7.95;;
72557;SDS011;60583;50.094;8.748;2022-10-31T05:55:23;15.90;;;7.90;;
72557;SDS011;60583;50.094;8.748;2022-10-31T05:57:48;15.55;;;8.40;;
72557;SDS011;60583;50.094;8.748;2022-10-31T06:00:14;13.27;;;7.50;;
72557;SDS011;60583;50.094;8.748;2022-10-31T06:02:39;14.13;;;7.60;;
72557;SDS011;60583;50.094;8.748;2022-10-31T06:05:04;17.17;;;8.55;;
72557;SDS011;60583;50.094;8.748;2022-10-31T06:07:33;14.52;;;8.02;;
72557;SDS011;60583;50.094;8.748;2022-10-31T06:09:59;13.40;;;8.38;;
72557;SDS011;60583;50.094;8.748;2022-10-31T06:12:24;13.35;;;7.85;;
72557;SDS011;60583;50.094;8.748;2022-10-31T06:14:50;14.02;;;7.68;;
72557;SDS011;60583;50.094;8.748;2022-10-31T06:17:15;13.73;;;7.40;;
72557;SDS011;60583;50.094;8.748;2022-10-31T06:19:40;15.30;;;7.82;;
72557;SDS011;60583;50.094;8.748;2022-10-31T06:22:06;14.27;;;7.80;;
72557;SDS011;60583;50.094;8.748;2022-10-31T06:24:31;16.52;;;8.57;;
72557;SDS011;60583;50.094;8.748;2022-10-31T06:26:56;14.45;;;7.68;;
72557;SDS011;60583;50.094;8.748;2022-10-31T06:29:22;12.27;;;7.38;;
72557;SDS011;60583;50.094;8.748;2022-10-31T06:31:47;13.18;;;7.70;;
72557;SDS011;60583;50.094;8.748;2022-10-31T06:34:12;13.07;;;7.22;;
72557;SDS011;60583;50.094;8.748;2022-10-31T06:36:38;14.18;;;8.13;;
72557;SDS011;60583;50.094;8.748;2022-10-31T06:39:03;11.48;;;8.18;;
72557;SDS011;60583;50.094;8.748;2022-10-31T06:41:28;12.20;;;7.45;;
72557;SDS011;60583;50.094;8.748;2022-10-31T06:43:54;13.85;;;7.55;;
72557;SDS011;60583;50.094;8.748;2022-10-31T06:46:19;14.25;;;7.95;;
72557;SDS011;60583;50.094;8.748;2022-10-31T06:48:44;12.98;;;7.90;;
72557;SDS011;60583;50.094;8.748;2022-10-31T06:51:10;13.00;;;7.93;;
72557;SDS011;60583;50.094;8.748;2022-10-31T06:53:35;11.90;;;7.90;;
72557;SDS011;60583;50.094;8.748;2022-10-31T06:56:00;15.55;;;9.23;;
72557;SDS011;60583;50.094;8.748;2022-10-31T06:58:26;14.68;;;8.82;;
72557;SDS011;60583;50.094;8.748;2022-10-31T07:00:51;13.95;;;8.00;;
72557;SDS011;60583;50.094;8.748;2022-10-31T07:03:16;12.75;;;8.00;;
72557;SDS011;60583;50.094;8.748;2022-10-31T07:05:42;13.65;;;8.43;;
72557;SDS011;60583;50.094;8.748;2022-10-31T07:08:09;14.50;;;8.55;;
72557;SDS011;60583;50.094;8.748;2022-10-31T07:10:36;13.50;;;8.05;;
72557;SDS011;60583;50.094;8.748;2022-10-31T07:13:03;15.52;;;8.35;;
72557;SDS011;60583;50.094;8.748;2022-10-31T07:15:33;12.80;;;7.65;;
72557;SDS011;60583;50.094;8.748;2022-10-31T07:18:00;13.82;;;7.80;;
72557;SDS011;60583;50.094;8.748;2022-10-31T07:20:30;14.95;;;7.80;;
72557;SDS011;60583;50.094;8.748;2022-10-31T07:22:56;16.63;;;8.40;;
72557;SDS011;60583;50.094;8.748;2022-10-31T07:25:22;17.27;;;8.45;;
72557;SDS011;60583;50.094;8.748;2022-10-31T07:27:48;14.57;;;7.18;;
72557;SDS011;60583;50.094;8.748;2022-10-31T07:30:13;12.77;;;7.60;;
72557;SDS011;60583;50.094;8.748;2022-10-31T07:32:40;14.57;;;7.85;;
72557;SDS011;60583;50.094;8.748;2022-10-31T07:35:07;11.85;;;7.25;;
72557;SDS011;60583;50.094;8.748;2022-10-31T07:37:33;12.00;;;7.00;;
72557;SDS011;60583;50.094;8.748;2022-10-31T07:39:59;12.90;;;6.93;;
72557;SDS011;60583;50.094;8.748;2022-10-31T07:42:24;12.63;;;7.93;;
72557;SDS011;60583;50.094;8.748;2022-10-31T07:44:49;13.68;;;7.18;;
72557;SDS011;60583;50.094;8.748;2022-10-31T07:47:15;80.15;;;12.80;;
72557;SDS011;60583;50.094;8.748;2022-10-31T07:49:40;22.58;;;7.63;;
72557;SDS011;60583;50.094;8.748;2022-10-31T07:52:05;16.00;;;7.65;;
72557;SDS011;60583;50.094;8.748;2022-10-31T07:54:31;14.95;;;7.15;;
72557;SDS011;60583;50.094;8.748;2022-10-31T07:56:56;13.70;;;7.90;;
72557;SDS011;60583;50.094;8.748;2022-10-31T07:59:21;12.82;;;6.85;;
72557;SDS011;60583;50.094;8.748;2022-10-31T08:01:47;16.55;;;7.25;;
72557;SDS011;60583;50.094;8.748;2022-10-31T08:04:12;12.38;;;7.38;;
72557;SDS011;60583;50.094;8.748;2022-10-31T08:06:37;15.13;;;8.02;;
72557;SDS011;60583;50.094;8.748;2022-10-31T08:09:03;14.52;;;8.23;;
72557;SDS011;60583;50.094;8.748;2022-10-31T08:11:28;16.60;;;8.55;;
72557;SDS011;60583;50.094;8.748;2022-10-31T08:13:53;15.38;;;9.43;;
72557;SDS011;60583;50.094;8.748;2022-10-31T08:16:19;15.90;;;10.88;;
72557;SDS011;60583;50.094;8.748;2022-10-31T08:18:44;17.58;;;11.23;;
72557;SDS011;60583;50.094;8.748;2022-10-31T08:21:09;18.92;;;10.95;;
72557;SDS011;60583;50.094;8.748;2022-10-31T08:23:35;16.10;;;10.32;;
72557;SDS011;60583;50.094;8.748;2022-10-31T08:26:01;20.35;;;11.60;;
72557;SDS011;60583;50.094;8.748;2022-10-31T08:28:26;21.60;;;11.30;;
72557;SDS011;60583;50.094;8.748;2022-10-31T08:30:51;16.63;;;10.45;;
72557;SDS011;60583;50.094;8.748;2022-10-31T08:33:17;17.60;;;10.65;;
72557;SDS011;60583;50.094;8.748;2022-10-31T08:35:43;17.83;;;10.73;;
72557;SDS011;60583;50.094;8.748;2022-10-31T08:38:10;17.70;;;10.82;;
72557;SDS011;60583;50.094;8.748;2022-10-31T08:40:37;19.45;;;11.30;;
72557;SDS011;60583;50.094;8.748;2022-10-31T08:43:08;17.17;;;10.68;;
72557;SDS011;60583;50.094;8.748;2022-10-31T08:45:37;19.02;;;11.85;;
72557;SDS011;60583;50.094;8.748;2022-10-31T08:48:03;17.75;;;11.40;;
72557;SDS011;60583;50.094;8.748;2022-10-31T08:50:31;16.88;;;11.43;;
72557;SDS011;60583;50.094;8.748;2022-10-31T08:53:09;21.10;;;10.80;;
72557;SDS011;60583;50.094;8.748;2022-10-31T08:55:38;16.60;;;11.02;;
72557;SDS011;60583;50.094;8.748;2022-10-31T08:58:05;19.98;;;12.68;;
72557;SDS011;60583;50.094;8.748;2022-10-31T09:00:33;19.40;;;11.82;;
72557;SDS011;60583;50.094;8.748;2022-10-31T09:03:03;17.48;;;11.85;;
72557;SDS011;60583;50.094;8.748;2022-10-31T09:05:31;16.50;;;11.18;;
72557;SDS011;60583;50.094;8.748;2022-10-31T09:07:57;16.48;;;11.07;;
72557;SDS011;60583;50.094;8.748;2022-10-31T09:10:24;17.08;;;10.27;;
72557;SDS011;60583;50.094;8.748;2022-10-31T09:13:00;14.77;;;9.85;;
72557;SDS011;60583;50.094;8.748;2022-10-31T09:15:31;15.73;;;9.45;;
72557;SDS011;60583;50.094;8.748;2022-10-31T09:17:57;15.15;;;8.88;;
72557;SDS011;60583;50.094;8.748;2022-10-31T09:20:23;14.70;;;9.05;;
72557;SDS011;60583;50.094;8.748;2022-10-31T09:22:54;17.90;;;9.55;;
72557;SDS011;60583;50.094;8.748;2022-10-31T09:25:21;13.75;;;8.43;;
72557;SDS011;60583;50.094;8.748;2022-10-31T09:27:46;16.65;;;8.75;;
72557;SDS011;60583;50.094;8.748;2022-10-31T09:30:11;16.10;;;9.32;;
72557;SDS011;60583;50.094;8.748;2022-10-31T09:32:37;14.07;;;8.55;;
72557;SDS011;60583;50.094;8.748;2022-10-31T09:35:02;13.52;;;8.32;;
72557;SDS011;60583;50.094;8.748;2022-10-31T09:37:27;17.15;;;8.57;;
72557;SDS011;60583;50.094;8.748;2022-10-31T09:39:53;19.08;;;11.70;;
72557;SDS011;60583;50.094;8.748;2022-10-31T09:42:27;13.20;;;9.32;;
72557;SDS011;60583;50.094;8.748;2022-10-31T09:53:12;13.63;;;8.00;;
72557;SDS011;60583;50.094;8.748;2022-10-31T09:55:45;13.48;;;8.02;;
72557;SDS011;60583;50.094;8.748;2022-10-31T09:58:23;13.95;;;8.85;;
72557;SDS011;60583;50.094;8.748;2022-10-31T10:00:51;12.20;;;7.95;;
72557;SDS011;60583;50.094;8.748;2022-10-31T10:03:24;13.13;;;8.35;;
72557;SDS011;60583;50.094;8.748;2022-10-31T10:08:38;15.30;;;8.25;;
72557;SDS011;60583;50.094;8.748;2022-10-31T10:16:22;12.70;;;8.30;;
72557;SDS011;60583;50.094;8.748;2022-10-31T10:27:37;12.73;;;8.32;;
72557;SDS011;60583;50.094;8.748;2022-10-31T10:30:46;11.57;;;7.85;;
72557;SDS011;60583;50.094;8.748;2022-10-31T10:33:20;13.02;;;8.23;;
72557;SDS011;60583;50.094;8.748;2022-10-31T10:35:54;12.93;;;7.80;;
72557;SDS011;60583;50.094;8.748;2022-10-31T10:40:55;12.02;;;8.90;;
72557;SDS011;60583;50.094;8.748;2022-10-31T10:51:45;12.77;;;7.57;;
72557;SDS011;60583;50.094;8.748;2022-10-31T10:59:47;11.50;;;7.72;;
72557;SDS011;60583;50.094;8.748;2022-10-31T11:02:17;11.75;;;7.15;;
72557;SDS011;60583;50.094;8.748;2022-10-31T11:04:56;22.75;;;8.75;;
72557;SDS011;60583;50.094;8.748;2022-10-31T11:07:23;14.20;;;7.75;;
72557;SDS011;60583;50.094;8.748;2022-10-31T11:09:49;13.50;;;7.90;;
72557;SDS011;60583;50.094;8.748;2022-10-31T11:12:21;15.75;;;8.00;;
72557;SDS011;60583;50.094;8.748;2022-10-31T11:15:00;13.07;;;8.23;;
72557;SDS011;60583;50.094;8.748;2022-10-31T11:17:36;11.90;;;7.57;;
72557;SDS011;60583;50.094;8.748;2022-10-31T11:20:06;11.70;;;7.57;;
72557;SDS011;60583;50.094;8.748;2022-10-31T11:22:49;15.23;;;8.05;;
72557;SDS011;60583;50.094;8.748;2022-10-31T11:28:01;11.38;;;7.40;;
72557;SDS011;60583;50.094;8.748;2022-10-31T11:30:35;10.73;;;7.40;;
72557;SDS011;60583;50.094;8.748;2022-10-31T11:33:14;12.68;;;7.43;;
72557;SDS011;60583;50.094;8.748;2022-10-31T11:35:43;16.65;;;9.25;;
72557;SDS011;60583;50.094;8.748;2022-10-31T11:38:12;12.60;;;8.13;;
72557;SDS011;60583;50.094;8.748;2022-10-31T11:40:51;10.90;;;7.50;;
72557;SDS011;60583;50.094;8.748;2022-10-31T11:43:19;13.13;;;7.53;;
72557;SDS011;60583;50.094;8.748;2022-10-31T11:45:44;15.57;;;7.70;;
72557;SDS011;60583;50.094;8.748;2022-10-31T11:48:15;28.45;;;9.70;;
72557;SDS011;60583;50.094;8.748;2022-10-31T11:50:49;24.30;;;9.50;;
72557;SDS011;60583;50.094;8.748;2022-10-31T11:53:17;13.43;;;7.13;;
72557;SDS011;60583;50.094;8.748;2022-10-31T11:55:45;13.63;;;7.00;;
72557;SDS011;60583;50.094;8.748;2022-10-31T11:58:24;14.18;;;7.85;;
72557;SDS011;60583;50.094;8.748;2022-10-31T12:00:52;12.63;;;7.93;;
72557;SDS011;60583;50.094;8.748;2022-10-31T12:05:47;13.03;;;7.50;;
72557;SDS011;60583;50.094;8.748;2022-10-31T12:08:18;10.68;;;7.07;;
72557;SDS011;60583;50.094;8.748;2022-10-31T12:11:08;10.90;;;7.03;;
72557;SDS011;60583;50.094;8.748;2022-10-31T12:13:33;11.75;;;7.38;;
72557;SDS011;60583;50.094;8.748;2022-10-31T12:16:05;10.80;;;7.40;;
72557;SDS011;60583;50.094;8.748;2022-10-31T12:24:25;15.98;;;12.02;;
72557;SDS011;60583;50.094;8.748;2022-10-31T12:29:50;14.95;;;8.63;;
72557;SDS011;60583;50.094;8.748;2022-10-31T12:32:29;11.93;;;7.90;;
72557;SDS011;60583;50.094;8.748;2022-10-31T12:35:13;25.33;;;9.38;;
72557;SDS011;60583;50.094;8.748;2022-10-31T12:37:48;22.40;;;8.82;;
72557;SDS011;60583;50.094;8.748;2022-10-31T12:54:17;13.63;;;7.82;;
72557;SDS011;60583;50.094;8.748;2022-10-31T12:59:50;12.77;;;6.72;;
72557;SDS011;60583;50.094;8.748;2022-10-31T13:08:15;11.23;;;6.93;;
72557;SDS011;60583;50.094;8.748;2022-10-31T13:10:46;13.73;;;6.75;;
72557;SDS011;60583;50.094;8.748;2022-10-31T13:13:23;14.32;;;7.80;;
72557;SDS011;60583;50.094;8.748;2022-10-31T13:16:03;13.88;;;7.18;;
72557;SDS011;60583;50.094;8.748;2022-10-31T13:18:52;12.38;;;6.82;;
72557;SDS011;60583;50.094;8.748;2022-10-31T13:21:21;32.17;;;9.43;;
72557;SDS011;60583;50.094;8.748;2022-10-31T13:23:50;17.08;;;7.43;;
72557;SDS011;60583;50.094;8.748;2022-10-31T13:26:23;13.73;;;6.53;;
72557;SDS011;60583;50.094;8.748;2022-10-31T13:29:05;12.98;;;7.80;;
72557;SDS011;60583;50.094;8.748;2022-10-31T13:34:20;18.60;;;7.60;;
72557;SDS011;60583;50.094;8.748;2022-10-31T13:36:58;13.52;;;8.40;;
72557;SDS011;60583;50.094;8.748;2022-10-31T13:42:31;13.85;;;8.10;;
72557;SDS011;60583;50.094;8.748;2022-10-31T13:45:11;13.18;;;8.07;;
72557;SDS011;60583;50.094;8.748;2022-10-31T13:47:41;12.93;;;8.20;;
72557;SDS011;60583;50.094;8.748;2022-10-31T13:50:24;14.63;;;8.80;;
72557;SDS011;60583;50.094;8.748;2022-10-31T13:53:09;13.10;;;7.65;;
72557;SDS011;60583;50.094;8.748;2022-10-31T13:55:44;31.45;;;9.32;;
72557;SDS011;60583;50.094;8.748;2022-10-31T13:58:21;14.70;;;8.73;;
72557;SDS011;60583;50.094;8.748;2022-10-31T14:01:49;18.88;;;8.88;;
72557;SDS011;60583;50.094;8.748;2022-10-31T14:03:47;17.50;;;8.52;;
72557;SDS011;60583;50.094;8.748;2022-10-31T14:06:23;15.93;;;8.32;;
72557;SDS011;60583;50.094;8.748;2022-10-31T14:09:00;15.50;;;8.82;;
72557;SDS011;60583;50.094;8.748;2022-10-31T14:11:26;18.08;;;8.63;;
72557;SDS011;60583;50.094;8.748;2022-10-31T14:13:53;14.88;;;8.27;;
72557;SDS011;60583;50.094;8.748;2022-10-31T14:16:26;13.45;;;8.10;;
72557;SDS011;60583;50.094;8.748;2022-10-31T14:19:04;13.02;;;6.55;;
72557;SDS011;60583;50.094;8.748;2022-10-31T14:21:37;11.15;;;6.70;;
72557;SDS011;60583;50.094;8.748;2022-10-31T14:24:16;12.27;;;7.72;;
72557;SDS011;60583;50.094;8.748;2022-10-31T14:27:43;11.43;;;7.47;;
72557;SDS011;60583;50.094;8.748;2022-10-31T14:29:45;16.52;;;7.47;;
72557;SDS011;60583;50.094;8.748;2022-10-31T14:34:38;18.80;;;8.80;;
72557;SDS011;60583;50.094;8.748;2022-10-31T14:51:18;13.15;;;8.88;;
72557;SDS011;60583;50.094;8.748;2022-10-31T14:53:47;15.07;;;9.02;;
72557;SDS011;60583;50.094;8.748;2022-10-31T14:56:25;12.88;;;8.75;;
72557;SDS011;60583;50.094;8.748;2022-10-31T14:58:53;13.40;;;8.25;;
72557;SDS011;60583;50.094;8.748;2022-10-31T15:01:25;12.32;;;8.82;;
72557;SDS011;60583;50.094;8.748;2022-10-31T15:04:02;12.27;;;8.02;;
72557;SDS011;60583;50.094;8.748;2022-10-31T15:06:47;13.23;;;8.30;;
72557;SDS011;60583;50.094;8.748;2022-10-31T15:09:28;17.50;;;10.88;;
72557;SDS011;60583;50.094;8.748;2022-10-31T15:11:55;19.15;;;11.85;;
72557;SDS011;60583;50.094;8.748;2022-10-31T15:14:27;15.80;;;9.10;;
72557;SDS011;60583;50.094;8.748;2022-10-31T15:16:55;15.35;;;9.35;;
72557;SDS011;60583;50.094;8.748;2022-10-31T15:19:26;13.00;;;8.20;;
72557;SDS011;60583;50.094;8.748;2022-10-31T15:21:54;12.38;;;8.02;;
72557;SDS011;60583;50.094;8.748;2022-10-31T15:24:22;14.10;;;8.18;;
72557;SDS011;60583;50.094;8.748;2022-10-31T15:26:51;13.98;;;8.00;;
72557;SDS011;60583;50.094;8.748;2022-10-31T15:29:19;13.48;;;7.65;;
72557;SDS011;60583;50.094;8.748;2022-10-31T15:37:02;11.90;;;7.10;;
72557;SDS011;60583;50.094;8.748;2022-10-31T15:39:27;14.77;;;7.93;;
72557;SDS011;60583;50.094;8.748;2022-10-31T15:41:54;13.70;;;8.38;;
72557;SDS011;60583;50.094;8.748;2022-10-31T15:44:25;18.27;;;12.13;;
72557;SDS011;60583;50.094;8.748;2022-10-31T15:46:56;21.10;;;12.85;;
72557;SDS011;60583;50.094;8.748;2022-10-31T15:49:37;16.10;;;10.27;;
72557;SDS011;60583;50.094;8.748;2022-10-31T15:54:36;14.23;;;8.40;;
72557;SDS011;60583;50.094;8.748;2022-10-31T15:57:12;15.73;;;8.30;;
72557;SDS011;60583;50.094;8.748;2022-10-31T15:59:40;13.88;;;8.10;;
72557;SDS011;60583;50.094;8.748;2022-10-31T16:02:10;14.25;;;8.18;;
72557;SDS011;60583;50.094;8.748;2022-10-31T16:04:37;14.73;;;9.13;;
72557;SDS011;60583;50.094;8.748;2022-10-31T16:07:23;15.23;;;9.50;;
72557;SDS011;60583;50.094;8.748;2022-10-31T16:09:55;14.70;;;9.10;;
72557;SDS011;60583;50.094;8.748;2022-10-31T16:12:23;15.73;;;9.82;;
72557;SDS011;60583;50.094;8.748;2022-10-31T16:14:50;15.35;;;8.88;;
72557;SDS011;60583;50.094;8.748;2022-10-31T16:17:19;13.32;;;9.43;;
72557;SDS011;60583;50.094;8.748;2022-10-31T16:22:29;15.38;;;9.10;;
72557;SDS011;60583;50.094;8.748;2022-10-31T16:25:11;18.70;;;11.45;;
72557;SDS011;60583;50.094;8.748;2022-10-31T16:27:39;17.52;;;10.05;;
72557;SDS011;60583;50.094;8.748;2022-10-31T16:33:04;18.73;;;11.05;;
72557;SDS011;60583;50.094;8.748;2022-10-31T16:35:48;18.05;;;10.77;;
72557;SDS011;60583;50.094;8.748;2022-10-31T16:38:14;16.63;;;10.40;;
72557;SDS011;60583;50.094;8.748;2022-10-31T16:40:39;15.30;;;9.95;;
72557;SDS011;60583;50.094;8.748;2022-10-31T16:43:05;18.98;;;10.27;;
72557;SDS011;60583;50.094;8.748;2022-10-31T16:45:38;16.13;;;10.57;;
72557;SDS011;60583;50.094;8.748;2022-10-31T16:48:12;17.27;;;10.95;;
72557;SDS011;60583;50.094;8.748;2022-10-31T16:50:40;27.63;;;16.60;;
72557;SDS011;60583;50.094;8.748;2022-10-31T16:53:07;19.33;;;11.95;;
72557;SDS011;60583;50.094;8.748;2022-10-31T16:55:33;16.25;;;10.20;;
72557;SDS011;60583;50.094;8.748;2022-10-31T16:58:00;17.45;;;9.15;;
72557;SDS011;60583;50.094;8.748;2022-10-31T17:00:26;15.63;;;9.32;;
72557;SDS011;60583;50.094;8.748;2022-10-31T17:02:53;16.67;;;9.80;;
72557;SDS011;60583;50.094;8.748;2022-10-31T17:05:21;15.75;;;10.23;;
72557;SDS011;60583;50.094;8.748;2022-10-31T17:07:54;17.48;;;10.55;;